sensor_id;sensor_type;location;lat;lon;timestamp;pressure;altitude;pressure_sealevel;temperature;humidity
86202;BME280;76853;48.008;20.694;2024-03-06T00:00:21;99413.47;;;9.04;68.62
86202;BME280;76853;48.008;20.694;2024-03-06T00:01:25;99400.66;;;9.02;69.20
86202;BME280;76853;48.008;20.694;2024-03-06T00:02:29;99418.81;;;9.02;68.72
86202;BME280;76853;48.008;20.694;2024-03-06T00:03:32;99422.38;;;9.01;68.70
86202;BME280;76853;48.008;20.694;2024-03-06T00:04:36;99420.44;;;9.03;69.16
86202;BME280;76853;48.008;20.694;2024-03-06T00:05:40;99412.69;;;9.03;69.06
86202;BME280;76853;48.008;20.694;2024-03-06T00:06:43;99413.00;;;9.00;68.72
86202;BME280;76853;48.008;20.694;2024-03-06T00:07:47;99410.91;;;8.95;69.05
86202;BME280;76853;48.008;20.694;2024-03-06T00:08:52;99417.09;;;8.94;69.51
86202;BME280;76853;48.008;20.694;2024-03-06T00:09:55;99418.06;;;8.93;69.74
86202;BME280;76853;48.008;20.694;2024-03-06T00:10:58;99417.78;;;8.88;69.75
86202;BME280;76853;48.008;20.694;2024-03-06T00:12:02;99421.34;;;8.87;70.12
86202;BME280;76853;48.008;20.694;2024-03-06T00:13:08;99417.16;;;8.86;70.11
86202;BME280;76853;48.008;20.694;2024-03-06T00:14:11;99418.75;;;8.87;69.49
86202;BME280;76853;48.008;20.694;2024-03-06T00:15:17;99423.50;;;8.84;69.70
86202;BME280;76853;48.008;20.694;2024-03-06T00:16:21;99421.41;;;8.79;70.12
86202;BME280;76853;48.008;20.694;2024-03-06T00:17:24;99420.78;;;8.77;70.03
86202;BME280;76853;48.008;20.694;2024-03-06T00:18:27;99432.75;;;8.78;70.10
86202;BME280;76853;48.008;20.694;2024-03-06T00:19:33;99421.75;;;8.76;69.97
86202;BME280;76853;48.008;20.694;2024-03-06T00:20:37;99431.47;;;8.74;69.72
86202;BME280;76853;48.008;20.694;2024-03-06T00:21:40;99415.91;;;8.74;70.10
86202;BME280;76853;48.008;20.694;2024-03-06T00:22:44;99418.50;;;8.74;69.70
86202;BME280;76853;48.008;20.694;2024-03-06T00:23:47;99416.09;;;8.72;69.67
86202;BME280;76853;48.008;20.694;2024-03-06T00:24:51;99419.69;;;8.71;69.90
86202;BME280;76853;48.008;20.694;2024-03-06T00:25:55;99414.66;;;8.70;69.87
86202;BME280;76853;48.008;20.694;2024-03-06T00:26:58;99415.47;;;8.70;69.97
86202;BME280;76853;48.008;20.694;2024-03-06T00:28:01;99417.25;;;8.70;70.23
86202;BME280;76853;48.008;20.694;2024-03-06T00:29:04;99409.63;;;8.68;70.28
86202;BME280;76853;48.008;20.694;2024-03-06T00:30:08;99415.63;;;8.69;70.26
86202;BME280;76853;48.008;20.694;2024-03-06T00:31:12;99412.22;;;8.68;70.37
86202;BME280;76853;48.008;20.694;2024-03-06T00:32:16;99418.22;;;8.69;69.90
86202;BME280;76853;48.008;20.694;2024-03-06T00:33:19;99415.97;;;8.66;70.02
86202;BME280;76853;48.008;20.694;2024-03-06T00:34:22;99421.97;;;8.66;70.19
86202;BME280;76853;48.008;20.694;2024-03-06T00:35:25;99430.72;;;8.65;70.28
86202;BME280;76853;48.008;20.694;2024-03-06T00:36:28;99419.72;;;8.63;69.91
86202;BME280;76853;48.008;20.694;2024-03-06T00:37:32;99415.69;;;8.61;70.02
86202;BME280;76853;48.008;20.694;2024-03-06T00:38:35;99418.44;;;8.59;70.61
86202;BME280;76853;48.008;20.694;2024-03-06T00:39:38;99422.81;;;8.59;70.36
86202;BME280;76853;48.008;20.694;2024-03-06T00:40:44;99416.84;;;8.58;69.77
86202;BME280;76853;48.008;20.694;2024-03-06T00:41:47;99418.44;;;8.59;70.36
86202;BME280;76853;48.008;20.694;2024-03-06T00:42:50;99416.03;;;8.58;70.49
86202;BME280;76853;48.008;20.694;2024-03-06T00:43:53;99415.53;;;8.54;70.47
86202;BME280;76853;48.008;20.694;2024-03-06T00:44:57;99429.31;;;8.55;70.35
86202;BME280;76853;48.008;20.694;2024-03-06T00:46:00;99431.25;;;8.53;70.31
86202;BME280;76853;48.008;20.694;2024-03-06T00:47:04;99423.44;;;8.61;69.63
86202;BME280;76853;48.008;20.694;2024-03-06T00:48:07;99428.31;;;8.56;70.19
86202;BME280;76853;48.008;20.694;2024-03-06T00:49:14;99424.94;;;8.55;70.44
86202;BME280;76853;48.008;20.694;2024-03-06T00:50:17;99414.91;;;8.52;70.56
86202;BME280;76853;48.008;20.694;2024-03-06T00:51:24;99423.66;;;8.51;70.44
86202;BME280;76853;48.008;20.694;2024-03-06T00:52:44;99418.66;;;8.50;70.17
86202;BME280;76853;48.008;20.694;2024-03-06T00:53:47;99420.78;;;8.46;70.51
86202;BME280;76853;48.008;20.694;2024-03-06T00:54:51;99423.38;;;8.46;70.45
86202;BME280;76853;48.008;20.694;2024-03-06T00:55:54;99411.09;;;8.40;70.85
86202;BME280;76853;48.008;20.694;2024-03-06T00:56:58;99422.59;;;8.37;71.09
86202;BME280;76853;48.008;20.694;2024-03-06T00:58:05;99429.41;;;8.38;70.88
86202;BME280;76853;48.008;20.694;2024-03-06T00:59:09;99428.59;;;8.38;71.30
86202;BME280;76853;48.008;20.694;2024-03-06T01:00:14;99423.41;;;8.38;71.20
86202;BME280;76853;48.008;20.694;2024-03-06T01:01:19;99429.56;;;8.37;71.11
86202;BME280;76853;48.008;20.694;2024-03-06T01:02:22;99427.59;;;8.39;70.49
86202;BME280;76853;48.008;20.694;2024-03-06T01:03:25;99409.94;;;8.34;71.26
86202;BME280;76853;48.008;20.694;2024-03-06T01:04:28;99425.47;;;8.34;70.90
86202;BME280;76853;48.008;20.694;2024-03-06T01:05:33;99422.09;;;8.34;71.39
86202;BME280;76853;48.008;20.694;2024-03-06T01:06:36;99418.88;;;8.32;71.46
86202;BME280;76853;48.008;20.694;2024-03-06T01:07:39;99419.84;;;8.31;71.29
86202;BME280;76853;48.008;20.694;2024-03-06T01:08:43;99418.25;;;8.30;71.23
86202;BME280;76853;48.008;20.694;2024-03-06T01:09:46;99416.59;;;8.29;71.48
86202;BME280;76853;48.008;20.694;2024-03-06T01:10:49;99415.00;;;8.28;71.48
86202;BME280;76853;48.008;20.694;2024-03-06T01:11:53;99409.66;;;8.29;71.39
86202;BME280;76853;48.008;20.694;2024-03-06T01:13:00;99427.31;;;8.26;71.53
86202;BME280;76853;48.008;20.694;2024-03-06T01:14:03;99413.38;;;8.27;71.55
86202;BME280;76853;48.008;20.694;2024-03-06T01:15:06;99423.44;;;8.22;71.71
86202;BME280;76853;48.008;20.694;2024-03-06T01:16:12;99414.06;;;8.20;72.02
86202;BME280;76853;48.008;20.694;2024-03-06T01:17:15;99416.31;;;8.15;72.22
86202;BME280;76853;48.008;20.694;2024-03-06T01:18:18;99415.22;;;8.18;72.12
86202;BME280;76853;48.008;20.694;2024-03-06T01:19:23;99407.94;;;8.13;72.37
86202;BME280;76853;48.008;20.694;2024-03-06T01:20:26;99402.75;;;8.13;72.39
86202;BME280;76853;48.008;20.694;2024-03-06T01:21:32;99406.31;;;8.12;72.52
86202;BME280;76853;48.008;20.694;2024-03-06T01:22:37;99403.25;;;8.09;72.92
86202;BME280;76853;48.008;20.694;2024-03-06T01:23:40;99411.34;;;8.06;73.18
86202;BME280;76853;48.008;20.694;2024-03-06T01:24:44;99404.88;;;8.10;72.65
86202;BME280;76853;48.008;20.694;2024-03-06T01:25:47;99404.72;;;8.11;72.53
86202;BME280;76853;48.008;20.694;2024-03-06T01:26:51;99408.91;;;8.12;72.63
86202;BME280;76853;48.008;20.694;2024-03-06T01:27:54;99411.16;;;8.15;72.45
86202;BME280;76853;48.008;20.694;2024-03-06T01:28:57;99415.06;;;8.11;72.56
86202;BME280;76853;48.008;20.694;2024-03-06T01:30:01;99405.03;;;8.16;72.27
86202;BME280;76853;48.008;20.694;2024-03-06T01:31:04;99407.44;;;8.18;72.03
86202;BME280;76853;48.008;20.694;2024-03-06T01:32:07;99405.63;;;8.27;71.56
86202;BME280;76853;48.008;20.694;2024-03-06T01:33:13;99423.28;;;8.23;71.71
86202;BME280;76853;48.008;20.694;2024-03-06T01:34:17;99414.38;;;8.26;71.55
86202;BME280;76853;48.008;20.694;2024-03-06T01:35:21;99409.00;;;8.27;71.69
86202;BME280;76853;48.008;20.694;2024-03-06T01:36:24;99414.00;;;8.29;71.61
86202;BME280;76853;48.008;20.694;2024-03-06T01:37:27;99406.09;;;8.30;70.79
86202;BME280;76853;48.008;20.694;2024-03-06T01:38:30;99418.75;;;8.25;71.25
86202;BME280;76853;48.008;20.694;2024-03-06T01:39:34;99409.34;;;8.24;71.41
86202;BME280;76853;48.008;20.694;2024-03-06T01:40:43;99416.31;;;8.24;71.35
86202;BME280;76853;48.008;20.694;2024-03-06T01:41:51;99416.16;;;8.25;71.53
86202;BME280;76853;48.008;20.694;2024-03-06T01:42:54;99417.44;;;8.29;70.90
86202;BME280;76853;48.008;20.694;2024-03-06T01:44:01;99416.59;;;8.29;71.33
86202;BME280;76853;48.008;20.694;2024-03-06T01:45:05;99410.16;;;8.25;71.63
86202;BME280;76853;48.008;20.694;2024-03-06T01:46:08;99418.75;;;8.25;71.71
86202;BME280;76853;48.008;20.694;2024-03-06T01:47:11;99418.56;;;8.27;71.32
86202;BME280;76853;48.008;20.694;2024-03-06T01:48:17;99404.34;;;8.23;71.43
86202;BME280;76853;48.008;20.694;2024-03-06T01:49:24;99419.88;;;8.23;71.57
86202;BME280;76853;48.008;20.694;2024-03-06T01:50:44;99418.78;;;8.17;71.91
86202;BME280;76853;48.008;20.694;2024-03-06T01:51:51;99417.44;;;8.21;71.73
86202;BME280;76853;48.008;20.694;2024-03-06T01:52:56;99412.44;;;8.19;71.38
86202;BME280;76853;48.008;20.694;2024-03-06T01:54:01;99415.97;;;8.27;70.99
86202;BME280;76853;48.008;20.694;2024-03-06T01:55:07;99412.41;;;8.28;70.94
86202;BME280;76853;48.008;20.694;2024-03-06T01:56:12;99424.91;;;8.24;71.40
86202;BME280;76853;48.008;20.694;2024-03-06T01:57:22;99433.63;;;8.23;71.22
86202;BME280;76853;48.008;20.694;2024-03-06T01:58:26;99423.91;;;8.25;71.04
86202;BME280;76853;48.008;20.694;2024-03-06T01:59:29;99419.38;;;8.27;71.05
86202;BME280;76853;48.008;20.694;2024-03-06T02:00:41;99421.16;;;8.27;71.20
86202;BME280;76853;48.008;20.694;2024-03-06T02:01:45;99422.75;;;8.28;71.35
86202;BME280;76853;48.008;20.694;2024-03-06T02:02:48;99421.94;;;8.27;71.10
86202;BME280;76853;48.008;20.694;2024-03-06T02:03:52;99426.97;;;8.29;71.05
86202;BME280;76853;48.008;20.694;2024-03-06T02:04:56;99423.91;;;8.25;70.97
86202;BME280;76853;48.008;20.694;2024-03-06T02:06:05;99421.94;;;8.27;71.40
86202;BME280;76853;48.008;20.694;2024-03-06T02:07:10;99432.13;;;8.29;70.74
86202;BME280;76853;48.008;20.694;2024-03-06T02:08:13;99433.78;;;8.30;70.86
86202;BME280;76853;48.008;20.694;2024-03-06T02:09:22;99421.63;;;8.30;70.57
86202;BME280;76853;48.008;20.694;2024-03-06T02:10:27;99421.78;;;8.29;70.60
86202;BME280;76853;48.008;20.694;2024-03-06T02:11:31;99431.81;;;8.32;70.22
86202;BME280;76853;48.008;20.694;2024-03-06T02:12:34;99430.22;;;8.31;70.48
86202;BME280;76853;48.008;20.694;2024-03-06T02:13:38;99432.63;;;8.32;70.63
86202;BME280;76853;48.008;20.694;2024-03-06T02:14:43;99428.25;;;8.33;70.40
86202;BME280;76853;48.008;20.694;2024-03-06T02:15:46;99427.28;;;8.34;70.41
86202;BME280;76853;48.008;20.694;2024-03-06T02:16:51;99426.63;;;8.32;70.43
86202;BME280;76853;48.008;20.694;2024-03-06T02:17:56;99425.84;;;8.31;70.46
86202;BME280;76853;48.008;20.694;2024-03-06T02:19:00;99423.56;;;8.28;70.44
86202;BME280;76853;48.008;20.694;2024-03-06T02:20:03;99425.34;;;8.28;70.20
86202;BME280;76853;48.008;20.694;2024-03-06T02:21:09;99430.03;;;8.32;70.20
86202;BME280;76853;48.008;20.694;2024-03-06T02:22:12;99425.84;;;8.31;70.44
86202;BME280;76853;48.008;20.694;2024-03-06T02:23:16;99431.00;;;8.31;70.56
86202;BME280;76853;48.008;20.694;2024-03-06T02:24:23;99421.47;;;8.32;70.03
86202;BME280;76853;48.008;20.694;2024-03-06T02:25:26;99417.09;;;8.32;70.10
86202;BME280;76853;48.008;20.694;2024-03-06T02:26:30;99422.25;;;8.32;70.25
86202;BME280;76853;48.008;20.694;2024-03-06T02:27:35;99424.22;;;8.30;70.52
86202;BME280;76853;48.008;20.694;2024-03-06T02:28:47;99420.84;;;8.30;70.20
86202;BME280;76853;48.008;20.694;2024-03-06T02:29:50;99413.22;;;8.28;69.84
86202;BME280;76853;48.008;20.694;2024-03-06T02:30:53;99415.66;;;8.30;70.04
86202;BME280;76853;48.008;20.694;2024-03-06T02:31:57;99420.03;;;8.29;69.99
86202;BME280;76853;48.008;20.694;2024-03-06T02:33:01;99415.78;;;8.28;70.14
86202;BME280;76853;48.008;20.694;2024-03-06T02:34:04;99421.94;;;8.27;70.00
86202;BME280;76853;48.008;20.694;2024-03-06T02:35:09;99422.47;;;8.23;70.00
86202;BME280;76853;48.008;20.694;2024-03-06T02:36:14;99421.50;;;8.24;69.83
86202;BME280;76853;48.008;20.694;2024-03-06T02:37:17;99423.75;;;8.27;69.93
86202;BME280;76853;48.008;20.694;2024-03-06T02:38:20;99424.91;;;8.24;70.30
86202;BME280;76853;48.008;20.694;2024-03-06T02:39:24;99423.75;;;8.27;69.76
86202;BME280;76853;48.008;20.694;2024-03-06T02:40:27;99417.25;;;8.31;69.64
86202;BME280;76853;48.008;20.694;2024-03-06T02:41:30;99415.47;;;8.31;69.32
86202;BME280;76853;48.008;20.694;2024-03-06T02:42:34;99427.78;;;8.29;69.71
86202;BME280;76853;48.008;20.694;2024-03-06T02:43:37;99419.84;;;8.31;69.46
86202;BME280;76853;48.008;20.694;2024-03-06T02:44:43;99428.59;;;8.30;69.31
86202;BME280;76853;48.008;20.694;2024-03-06T02:45:46;99419.84;;;8.31;69.28
86202;BME280;76853;48.008;20.694;2024-03-06T02:46:50;99415.00;;;8.28;69.37
86202;BME280;76853;48.008;20.694;2024-03-06T02:47:54;99423.25;;;8.31;69.32
86202;BME280;76853;48.008;20.694;2024-03-06T02:48:57;99426.63;;;8.32;69.07
86202;BME280;76853;48.008;20.694;2024-03-06T02:50:00;99416.91;;;8.34;69.03
86202;BME280;76853;48.008;20.694;2024-03-06T02:51:04;99433.44;;;8.33;69.24
86202;BME280;76853;48.008;20.694;2024-03-06T02:52:07;99425.34;;;8.36;68.52
86202;BME280;76853;48.008;20.694;2024-03-06T02:53:12;99416.91;;;8.34;68.68
86202;BME280;76853;48.008;20.694;2024-03-06T02:54:16;99419.69;;;8.32;68.55
86202;BME280;76853;48.008;20.694;2024-03-06T02:55:22;99431.00;;;8.31;69.40
86202;BME280;76853;48.008;20.694;2024-03-06T02:56:26;99426.28;;;8.35;68.38
86202;BME280;76853;48.008;20.694;2024-03-06T02:57:29;99432.31;;;8.35;68.83
86202;BME280;76853;48.008;20.694;2024-03-06T02:58:32;99427.94;;;8.36;68.56
86202;BME280;76853;48.008;20.694;2024-03-06T02:59:36;99424.06;;;8.32;68.65
86202;BME280;76853;48.008;20.694;2024-03-06T03:00:42;99426.50;;;8.25;69.12
86202;BME280;76853;48.008;20.694;2024-03-06T03:01:46;99430.03;;;8.32;68.55
86202;BME280;76853;48.008;20.694;2024-03-06T03:02:49;99421.78;;;8.29;69.19
86202;BME280;76853;48.008;20.694;2024-03-06T03:03:53;99427.94;;;8.28;68.94
86202;BME280;76853;48.008;20.694;2024-03-06T03:04:56;99428.28;;;8.25;69.13
86202;BME280;76853;48.008;20.694;2024-03-06T03:05:59;99434.09;;;8.27;68.89
86202;BME280;76853;48.008;20.694;2024-03-06T03:07:02;99425.53;;;8.26;68.88
86202;BME280;76853;48.008;20.694;2024-03-06T03:08:09;99426.81;;;8.22;69.18
86202;BME280;76853;48.008;20.694;2024-03-06T03:09:12;99431.19;;;8.22;69.27
86202;BME280;76853;48.008;20.694;2024-03-06T03:10:16;99427.53;;;8.16;69.46
86202;BME280;76853;48.008;20.694;2024-03-06T03:11:19;99450.66;;;8.17;69.04
86202;BME280;76853;48.008;20.694;2024-03-06T03:12:22;99436.22;;;8.15;69.50
86202;BME280;76853;48.008;20.694;2024-03-06T03:13:26;99433.66;;;8.15;69.19
86202;BME280;76853;48.008;20.694;2024-03-06T03:14:29;99433.81;;;8.13;69.52
86202;BME280;76853;48.008;20.694;2024-03-06T03:15:33;99428.81;;;8.12;69.50
86202;BME280;76853;48.008;20.694;2024-03-06T03:16:39;99432.38;;;8.11;69.32
86202;BME280;76853;48.008;20.694;2024-03-06T03:17:43;99438.81;;;8.15;69.37
86202;BME280;76853;48.008;20.694;2024-03-06T03:18:46;99431.06;;;8.15;69.31
86202;BME280;76853;48.008;20.694;2024-03-06T03:19:50;99439.00;;;8.13;69.32
86202;BME280;76853;48.008;20.694;2024-03-06T03:20:57;99437.72;;;8.09;69.48
86202;BME280;76853;48.008;20.694;2024-03-06T03:22:01;99440.00;;;8.04;70.05
86202;BME280;76853;48.008;20.694;2024-03-06T03:23:07;99433.50;;;8.08;69.55
86202;BME280;76853;48.008;20.694;2024-03-06T03:24:15;99438.22;;;8.05;69.91
86202;BME280;76853;48.008;20.694;2024-03-06T03:25:19;99433.22;;;8.03;69.62
86202;BME280;76853;48.008;20.694;2024-03-06T03:26:25;99434.69;;;7.98;70.52
86202;BME280;76853;48.008;20.694;2024-03-06T03:27:28;99433.88;;;7.97;70.22
86202;BME280;76853;48.008;20.694;2024-03-06T03:28:32;99441.66;;;7.97;70.21
86202;BME280;76853;48.008;20.694;2024-03-06T03:29:35;99433.06;;;7.97;70.06
86202;BME280;76853;48.008;20.694;2024-03-06T03:30:38;99440.03;;;7.96;69.94
86202;BME280;76853;48.008;20.694;2024-03-06T03:31:42;99435.97;;;7.93;70.15
86202;BME280;76853;48.008;20.694;2024-03-06T03:32:46;99433.38;;;7.93;70.11
86202;BME280;76853;48.008;20.694;2024-03-06T03:33:50;99432.28;;;7.96;69.95
86202;BME280;76853;48.008;20.694;2024-03-06T03:34:53;99440.19;;;7.95;70.11
86202;BME280;76853;48.008;20.694;2024-03-06T03:35:56;99439.38;;;7.94;70.31
86202;BME280;76853;48.008;20.694;2024-03-06T03:37:03;99444.38;;;7.96;70.08
86202;BME280;76853;48.008;20.694;2024-03-06T03:38:07;99443.75;;;7.93;70.08
86202;BME280;76853;48.008;20.694;2024-03-06T03:39:11;99442.75;;;7.95;70.27
86202;BME280;76853;48.008;20.694;2024-03-06T03:40:21;99440.19;;;7.95;70.01
86202;BME280;76853;48.008;20.694;2024-03-06T03:41:25;99449.72;;;7.94;70.32
86202;BME280;76853;48.008;20.694;2024-03-06T03:42:28;99448.09;;;7.93;69.97
86202;BME280;76853;48.008;20.694;2024-03-06T03:43:31;99447.78;;;7.96;70.04
86202;BME280;76853;48.008;20.694;2024-03-06T03:44:36;99467.03;;;7.93;70.04
86202;BME280;76853;48.008;20.694;2024-03-06T03:45:39;99455.06;;;7.92;69.78
86202;BME280;76853;48.008;20.694;2024-03-06T03:46:45;99451.50;;;7.93;69.76
86202;BME280;76853;48.008;20.694;2024-03-06T03:47:49;99451.34;;;7.95;69.96
86202;BME280;76853;48.008;20.694;2024-03-06T03:48:52;99456.06;;;7.91;70.31
86202;BME280;76853;48.008;20.694;2024-03-06T03:49:55;99462.03;;;7.92;70.36
86202;BME280;76853;48.008;20.694;2024-03-06T03:51:13;99454.25;;;7.92;70.29
86202;BME280;76853;48.008;20.694;2024-03-06T03:52:16;99443.56;;;7.95;70.00
86202;BME280;76853;48.008;20.694;2024-03-06T03:53:20;99450.69;;;7.93;69.88
86202;BME280;76853;48.008;20.694;2024-03-06T03:54:25;99456.69;;;7.93;69.89
86202;BME280;76853;48.008;20.694;2024-03-06T03:55:28;99464.63;;;7.92;70.02
86202;BME280;76853;48.008;20.694;2024-03-06T03:56:32;99459.28;;;7.93;69.97
86202;BME280;76853;48.008;20.694;2024-03-06T03:57:35;99462.50;;;7.96;69.65
86202;BME280;76853;48.008;20.694;2024-03-06T03:58:40;99453.13;;;7.95;69.97
86202;BME280;76853;48.008;20.694;2024-03-06T03:59:43;99473.00;;;7.94;69.84
86202;BME280;76853;48.008;20.694;2024-03-06T04:00:46;99459.91;;;7.96;69.70
86202;BME280;76853;48.008;20.694;2024-03-06T04:01:50;99458.97;;;7.97;69.30
86202;BME280;76853;48.008;20.694;2024-03-06T04:02:53;99457.81;;;7.99;69.44
86202;BME280;76853;48.008;20.694;2024-03-06T04:03:58;99468.16;;;7.99;69.54
86202;BME280;76853;48.008;20.694;2024-03-06T04:05:01;99472.19;;;8.02;69.62
86202;BME280;76853;48.008;20.694;2024-03-06T04:06:10;99467.81;;;8.02;69.97
86202;BME280;76853;48.008;20.694;2024-03-06T04:07:13;99474.13;;;8.00;69.86
86202;BME280;76853;48.008;20.694;2024-03-06T04:08:20;99473.69;;;7.96;70.16
86202;BME280;76853;48.008;20.694;2024-03-06T04:09:25;99478.84;;;7.96;69.52
86202;BME280;76853;48.008;20.694;2024-03-06T04:10:29;99472.69;;;7.97;69.84
86202;BME280;76853;48.008;20.694;2024-03-06T04:11:32;99480.59;;;7.96;69.83
86202;BME280;76853;48.008;20.694;2024-03-06T04:12:37;99480.47;;;7.97;69.81
86202;BME280;76853;48.008;20.694;2024-03-06T04:13:41;99477.06;;;7.97;69.86
86202;BME280;76853;48.008;20.694;2024-03-06T04:14:45;99480.13;;;7.92;70.08
86202;BME280;76853;48.008;20.694;2024-03-06T04:15:48;99480.13;;;7.92;70.19
86202;BME280;76853;48.008;20.694;2024-03-06T04:16:54;99477.88;;;7.89;70.42
86202;BME280;76853;48.008;20.694;2024-03-06T04:17:57;99481.44;;;7.88;70.33
86202;BME280;76853;48.008;20.694;2024-03-06T04:19:01;99484.34;;;7.85;70.65
86202;BME280;76853;48.008;20.694;2024-03-06T04:20:05;99483.88;;;7.81;70.67
86202;BME280;76853;48.008;20.694;2024-03-06T04:21:09;99484.22;;;7.78;70.77
86202;BME280;76853;48.008;20.694;2024-03-06T04:22:13;99481.63;;;7.78;71.20
86202;BME280;76853;48.008;20.694;2024-03-06T04:23:17;99481.13;;;7.75;71.14
86202;BME280;76853;48.008;20.694;2024-03-06T04:24:24;99484.06;;;7.72;71.61
86202;BME280;76853;48.008;20.694;2024-03-06T04:25:27;99487.13;;;7.67;71.59
86202;BME280;76853;48.008;20.694;2024-03-06T04:26:30;99492.63;;;7.64;71.99
86202;BME280;76853;48.008;20.694;2024-03-06T04:27:33;99488.56;;;7.61;71.83
86202;BME280;76853;48.008;20.694;2024-03-06T04:28:37;99491.97;;;7.62;71.58
86202;BME280;76853;48.008;20.694;2024-03-06T04:29:40;99488.91;;;7.58;71.83
86202;BME280;76853;48.008;20.694;2024-03-06T04:30:44;99482.94;;;7.50;72.10
86202;BME280;76853;48.008;20.694;2024-03-06T04:31:48;99487.59;;;7.54;71.87
86202;BME280;76853;48.008;20.694;2024-03-06T04:32:51;99488.75;;;7.52;72.00
86202;BME280;76853;48.008;20.694;2024-03-06T04:33:54;99486.81;;;7.46;72.65
86202;BME280;76853;48.008;20.694;2024-03-06T04:34:57;99487.59;;;7.46;72.50
86202;BME280;76853;48.008;20.694;2024-03-06T04:36:05;99475.16;;;7.42;72.89
86202;BME280;76853;48.008;20.694;2024-03-06T04:37:08;99483.88;;;7.41;72.89
86202;BME280;76853;48.008;20.694;2024-03-06T04:38:12;99485.66;;;7.40;72.93
86202;BME280;76853;48.008;20.694;2024-03-06T04:39:18;99480.03;;;7.36;73.22
86202;BME280;76853;48.008;20.694;2024-03-06T04:40:21;99488.06;;;7.33;73.40
86202;BME280;76853;48.008;20.694;2024-03-06T04:41:28;99482.44;;;7.30;73.41
86202;BME280;76853;48.008;20.694;2024-03-06T04:42:31;99486.00;;;7.29;73.54
86202;BME280;76853;48.008;20.694;2024-03-06T04:43:34;99489.22;;;7.31;73.50
86202;BME280;76853;48.008;20.694;2024-03-06T04:44:38;99488.72;;;7.27;73.81
86202;BME280;76853;48.008;20.694;2024-03-06T04:45:41;99483.53;;;7.27;73.58
86202;BME280;76853;48.008;20.694;2024-03-06T04:46:50;99491.47;;;7.26;73.65
86202;BME280;76853;48.008;20.694;2024-03-06T04:47:53;99487.09;;;7.26;73.64
86202;BME280;76853;48.008;20.694;2024-03-06T04:48:57;99485.31;;;7.27;73.54
86202;BME280;76853;48.008;20.694;2024-03-06T04:50:00;99493.59;;;7.30;73.28
86202;BME280;76853;48.008;20.694;2024-03-06T04:51:03;99495.19;;;7.31;73.18
86202;BME280;76853;48.008;20.694;2024-03-06T04:52:07;99483.88;;;7.32;73.40
86202;BME280;76853;48.008;20.694;2024-03-06T04:53:11;99485.66;;;7.32;73.15
86202;BME280;76853;48.008;20.694;2024-03-06T04:54:15;99490.19;;;7.38;72.93
86202;BME280;76853;48.008;20.694;2024-03-06T04:55:19;99488.72;;;7.35;73.06
86202;BME280;76853;48.008;20.694;2024-03-06T04:56:26;99484.84;;;7.40;72.94
86202;BME280;76853;48.008;20.694;2024-03-06T04:57:30;99481.81;;;7.36;72.67
86202;BME280;76853;48.008;20.694;2024-03-06T04:58:34;99490.03;;;7.40;72.74
86202;BME280;76853;48.008;20.694;2024-03-06T04:59:37;99483.06;;;7.40;72.99
86202;BME280;76853;48.008;20.694;2024-03-06T05:00:40;99496.81;;;7.41;73.15
86202;BME280;76853;48.008;20.694;2024-03-06T05:01:44;99480.66;;;7.30;73.52
86202;BME280;76853;48.008;20.694;2024-03-06T05:02:48;99490.19;;;7.38;73.32
86202;BME280;76853;48.008;20.694;2024-03-06T05:04:11;99491.97;;;7.37;73.24
86202;BME280;76853;48.008;20.694;2024-03-06T05:05:32;99491.00;;;7.38;73.38
86202;BME280;76853;48.008;20.694;2024-03-06T05:06:53;99490.66;;;7.33;73.66
86202;BME280;76853;48.008;20.694;2024-03-06T05:08:14;99495.66;;;7.35;73.59
86202;BME280;76853;48.008;20.694;2024-03-06T05:09:35;99492.63;;;7.31;73.83
86202;BME280;76853;48.008;20.694;2024-03-06T05:10:56;99492.28;;;7.34;73.73
86202;BME280;76853;48.008;20.694;2024-03-06T05:12:16;99496.66;;;7.34;73.88
86202;BME280;76853;48.008;20.694;2024-03-06T05:13:39;99493.09;;;7.35;73.74
86202;BME280;76853;48.008;20.694;2024-03-06T05:14:59;99501.34;;;7.38;73.72
86202;BME280;76853;48.008;20.694;2024-03-06T05:16:19;99496.00;;;7.40;73.15
86202;BME280;76853;48.008;20.694;2024-03-06T05:17:42;99492.31;;;7.43;72.97
86202;BME280;76853;48.008;20.694;2024-03-06T05:19:04;99490.38;;;7.45;72.73
86202;BME280;76853;48.008;20.694;2024-03-06T05:20:25;99499.56;;;7.47;72.78
86202;BME280;76853;48.008;20.694;2024-03-06T05:21:45;99503.28;;;7.53;72.15
86202;BME280;76853;48.008;20.694;2024-03-06T05:23:06;99505.72;;;7.54;72.44
86202;BME280;76853;48.008;20.694;2024-03-06T05:24:27;99508.16;;;7.56;72.43
86202;BME280;76853;48.008;20.694;2024-03-06T05:25:47;99502.16;;;7.55;72.21
86202;BME280;76853;48.008;20.694;2024-03-06T05:27:09;99501.03;;;7.58;72.20
86202;BME280;76853;48.008;20.694;2024-03-06T05:28:30;99503.44;;;7.59;72.23
86202;BME280;76853;48.008;20.694;2024-03-06T05:29:51;99498.44;;;7.58;72.28
86202;BME280;76853;48.008;20.694;2024-03-06T05:31:19;99513.97;;;7.58;72.20
86202;BME280;76853;48.008;20.694;2024-03-06T05:32:40;99506.38;;;7.56;72.65
86202;BME280;76853;48.008;20.694;2024-03-06T05:34:01;99504.88;;;7.62;72.23
86202;BME280;76853;48.008;20.694;2024-03-06T05:35:23;99498.78;;;7.63;72.15
86202;BME280;76853;48.008;20.694;2024-03-06T05:36:43;99502.00;;;7.65;72.19
86202;BME280;76853;48.008;20.694;2024-03-06T05:38:06;99503.44;;;7.68;71.88
86202;BME280;76853;48.008;20.694;2024-03-06T05:39:32;99506.66;;;7.61;72.29
86202;BME280;76853;48.008;20.694;2024-03-06T05:40:52;99509.44;;;7.60;72.40
86202;BME280;76853;48.008;20.694;2024-03-06T05:42:13;99506.22;;;7.58;72.58
86202;BME280;76853;48.008;20.694;2024-03-06T05:43:34;99514.13;;;7.56;72.58
86202;BME280;76853;48.008;20.694;2024-03-06T05:45:04;99510.25;;;7.52;73.03
86202;BME280;76853;48.008;20.694;2024-03-06T05:46:28;99503.44;;;7.59;72.74
86202;BME280;76853;48.008;20.694;2024-03-06T05:47:48;99520.75;;;7.59;72.68
86202;BME280;76853;48.008;20.694;2024-03-06T05:49:10;99514.13;;;7.56;72.78
86202;BME280;76853;48.008;20.694;2024-03-06T05:50:30;99518.00;;;7.52;72.47